sensor_id;sensor_type;location;lat;lon;timestamp;P1;P2;P0
70691;PMS5003;58267;51.156;17.044;2023-05-07T00:01:26;16;16;
70691;PMS5003;58267;51.156;17.044;2023-05-07T00:03:51;13;13;
70691;PMS5003;58267;51.156;17.044;2023-05-07T00:06:16;12;11;
70691;PMS5003;58267;51.156;17.044;2023-05-07T00:08:42;12;12;
70691;PMS5003;58267;51.156;17.044;2023-05-07T00:11:08;13;12;
70691;PMS5003;58267;51.156;17.044;2023-05-07T00:13:33;14;14;
70691;PMS5003;58267;51.156;17.044;2023-05-07T00:15:58;12;12;
70691;PMS5003;58267;51.156;17.044;2023-05-07T00:18:24;13;12;
70691;PMS5003;58267;51.156;17.044;2023-05-07T00:20:49;12;12;
70691;PMS5003;58267;51.156;17.044;2023-05-07T00:23:14;12;12;
70691;PMS5003;58267;51.156;17.044;2023-05-07T00:25:39;13;12;
70691;PMS5003;58267;51.156;17.044;2023-05-07T00:28:04;14;14;
70691;PMS5003;58267;51.156;17.044;2023-05-07T00:30:30;14;14;
70691;PMS5003;58267;51.156;17.044;2023-05-07T00:32:55;13;13;
70691;PMS5003;58267;51.156;17.044;2023-05-07T00:35:21;16;14;
70691;PMS5003;58267;51.156;17.044;2023-05-07T00:37:47;14;13;
70691;PMS5003;58267;51.156;17.044;2023-05-07T00:40:12;14;13;
70691;PMS5003;58267;51.156;17.044;2023-05-07T00:42:37;13;13;
70691;PMS5003;58267;51.156;17.044;2023-05-07T00:45:03;12;11;
70691;PMS5003;58267;51.156;17.044;2023-05-07T00:47:28;16;16;
70691;PMS5003;58267;51.156;17.044;2023-05-07T00:49:53;15;15;
70691;PMS5003;58267;51.156;17.044;2023-05-07T00:52:19;15;14;
70691;PMS5003;58267;51.156;17.044;2023-05-07T00:54:45;14;13;
70691;PMS5003;58267;51.156;17.044;2023-05-07T00:57:10;14;14;
70691;PMS5003;58267;51.156;17.044;2023-05-07T00:59:35;18;17;
70691;PMS5003;58267;51.156;17.044;2023-05-07T01:02:00;16;16;
70691;PMS5003;58267;51.156;17.044;2023-05-07T01:04:26;16;14;
70691;PMS5003;58267;51.156;17.044;2023-05-07T01:06:51;15;15;
70691;PMS5003;58267;51.156;17.044;2023-05-07T01:09:16;17;16;
70691;PMS5003;58267;51.156;17.044;2023-05-07T01:11:41;15;15;
70691;PMS5003;58267;51.156;17.044;2023-05-07T01:14:07;14;14;
70691;PMS5003;58267;51.156;17.044;2023-05-07T01:16:32;16;16;
70691;PMS5003;58267;51.156;17.044;2023-05-07T01:18:57;14;14;
70691;PMS5003;58267;51.156;17.044;2023-05-07T01:21:24;14;13;
70691;PMS5003;58267;51.156;17.044;2023-05-07T01:23:49;17;16;
70691;PMS5003;58267;51.156;17.044;2023-05-07T01:26:15;16;16;
70691;PMS5003;58267;51.156;17.044;2023-05-07T01:28:40;16;16;
70691;PMS5003;58267;51.156;17.044;2023-05-07T01:31:05;17;17;
70691;PMS5003;58267;51.156;17.044;2023-05-07T01:33:32;19;18;
70691;PMS5003;58267;51.156;17.044;2023-05-07T01:35:56;16;15;
70691;PMS5003;58267;51.156;17.044;2023-05-07T01:38:21;16;16;
70691;PMS5003;58267;51.156;17.044;2023-05-07T01:40:47;16;16;
70691;PMS5003;58267;51.156;17.044;2023-05-07T01:43:12;15;14;
70691;PMS5003;58267;51.156;17.044;2023-05-07T01:45:38;16;15;
70691;PMS5003;58267;51.156;17.044;2023-05-07T01:48:04;18;16;
70691;PMS5003;58267;51.156;17.044;2023-05-07T01:50:29;18;16;
70691;PMS5003;58267;51.156;17.044;2023-05-07T01:52:55;17;16;
70691;PMS5003;58267;51.156;17.044;2023-05-07T01:55:21;16;16;
70691;PMS5003;58267;51.156;17.044;2023-05-07T01:57:48;16;15;
70691;PMS5003;58267;51.156;17.044;2023-05-07T02:00:13;19;18;
70691;PMS5003;58267;51.156;17.044;2023-05-07T02:02:39;17;15;
70691;PMS5003;58267;51.156;17.044;2023-05-07T02:05:04;16;15;
70691;PMS5003;58267;51.156;17.044;2023-05-07T02:07:29;17;16;
70691;PMS5003;58267;51.156;17.044;2023-05-07T02:09:54;18;16;
70691;PMS5003;58267;51.156;17.044;2023-05-07T02:12:20;15;15;
70691;PMS5003;58267;51.156;17.044;2023-05-07T02:14:45;16;15;
70691;PMS5003;58267;51.156;17.044;2023-05-07T02:17:10;14;14;
70691;PMS5003;58267;51.156;17.044;2023-05-07T02:19:35;18;18;
70691;PMS5003;58267;51.156;17.044;2023-05-07T02:22:00;18;17;
70691;PMS5003;58267;51.156;17.044;2023-05-07T02:24:26;18;18;
70691;PMS5003;58267;51.156;17.044;2023-05-07T02:26:51;17;17;
70691;PMS5003;58267;51.156;17.044;2023-05-07T02:29:17;17;17;
70691;PMS5003;58267;51.156;17.044;2023-05-07T02:31:42;18;18;
70691;PMS5003;58267;51.156;17.044;2023-05-07T02:34:07;19;19;
70691;PMS5003;58267;51.156;17.044;2023-05-07T02:36:33;19;19;
70691;PMS5003;58267;51.156;17.044;2023-05-07T02:38:58;18;17;
70691;PMS5003;58267;51.156;17.044;2023-05-07T02:41:24;19;18;
70691;PMS5003;58267;51.156;17.044;2023-05-07T02:43:49;19;18;
70691;PMS5003;58267;51.156;17.044;2023-05-07T02:46:14;18;17;
70691;PMS5003;58267;51.156;17.044;2023-05-07T02:48:40;18;18;
70691;PMS5003;58267;51.156;17.044;2023-05-07T02:51:06;16;16;
70691;PMS5003;58267;51.156;17.044;2023-05-07T02:53:31;18;17;
70691;PMS5003;58267;51.156;17.044;2023-05-07T02:55:57;18;17;
70691;PMS5003;58267;51.156;17.044;2023-05-07T02:58:22;17;17;
70691;PMS5003;58267;51.156;17.044;2023-05-07T03:00:47;16;15;
70691;PMS5003;58267;51.156;17.044;2023-05-07T03:03:13;17;16;
70691;PMS5003;58267;51.156;17.044;2023-05-07T03:05:38;16;15;
70691;PMS5003;58267;51.156;17.044;2023-05-07T03:08:04;17;16;
70691;PMS5003;58267;51.156;17.044;2023-05-07T03:10:29;16;15;
70691;PMS5003;58267;51.156;17.044;2023-05-07T03:12:54;17;15;
70691;PMS5003;58267;51.156;17.044;2023-05-07T03:15:20;15;14;
70691;PMS5003;58267;51.156;17.044;2023-05-07T03:17:45;19;18;
70691;PMS5003;58267;51.156;17.044;2023-05-07T03:20:11;16;16;
70691;PMS5003;58267;51.156;17.044;2023-05-07T03:22:36;18;17;
70691;PMS5003;58267;51.156;17.044;2023-05-07T03:25:01;14;13;
70691;PMS5003;58267;51.156;17.044;2023-05-07T03:27:26;16;15;
70691;PMS5003;58267;51.156;17.044;2023-05-07T03:29:52;13;13;
70691;PMS5003;58267;51.156;17.044;2023-05-07T03:32:17;15;15;
70691;PMS5003;58267;51.156;17.044;2023-05-07T03:34:43;13;13;
70691;PMS5003;58267;51.156;17.044;2023-05-07T03:37:08;16;16;
70691;PMS5003;58267;51.156;17.044;2023-05-07T03:39:34;18;17;
70691;PMS5003;58267;51.156;17.044;2023-05-07T03:41:59;13;13;
70691;PMS5003;58267;51.156;17.044;2023-05-07T03:44:25;14;14;
70691;PMS5003;58267;51.156;17.044;2023-05-07T03:46:50;17;16;
70691;PMS5003;58267;51.156;17.044;2023-05-07T03:49:15;13;13;
70691;PMS5003;58267;51.156;17.044;2023-05-07T03:51:40;11;11;
70691;PMS5003;58267;51.156;17.044;2023-05-07T03:54:06;14;14;
70691;PMS5003;58267;51.156;17.044;2023-05-07T03:56:31;13;13;
70691;PMS5003;58267;51.156;17.044;2023-05-07T03:58:56;12;12;
70691;PMS5003;58267;51.156;17.044;2023-05-07T04:01:21;11;11;
70691;PMS5003;58267;51.156;17.044;2023-05-07T04:03:46;16;16;
70691;PMS5003;58267;51.156;17.044;2023-05-07T04:06:12;21;19;
70691;PMS5003;58267;51.156;17.044;2023-05-07T04:08:38;21;21;
70691;PMS5003;58267;51.156;17.044;2023-05-07T04:11:03;24;23;
70691;PMS5003;58267;51.156;17.044;2023-05-07T04:13:29;24;23;
70691;PMS5003;58267;51.156;17.044;2023-05-07T04:15:54;23;23;
70691;PMS5003;58267;51.156;17.044;2023-05-07T04:18:19;24;22;
70691;PMS5003;58267;51.156;17.044;2023-05-07T04:20:45;25;24;
70691;PMS5003;58267;51.156;17.044;2023-05-07T04:23:10;20;20;
70691;PMS5003;58267;51.156;17.044;2023-05-07T04:25:35;22;22;
70691;PMS5003;58267;51.156;17.044;2023-05-07T04:28:01;22;21;
70691;PMS5003;58267;51.156;17.044;2023-05-07T04:30:27;21;21;
70691;PMS5003;58267;51.156;17.044;2023-05-07T04:32:52;24;24;
70691;PMS5003;58267;51.156;17.044;2023-05-07T04:35:17;22;20;
70691;PMS5003;58267;51.156;17.044;2023-05-07T04:37:43;21;20;
70691;PMS5003;58267;51.156;17.044;2023-05-07T04:40:09;22;21;
70691;PMS5003;58267;51.156;17.044;2023-05-07T04:42:34;20;19;
70691;PMS5003;58267;51.156;17.044;2023-05-07T04:44:59;23;21;
70691;PMS5003;58267;51.156;17.044;2023-05-07T04:47:25;18;17;
70691;PMS5003;58267;51.156;17.044;2023-05-07T04:49:51;19;18;
70691;PMS5003;58267;51.156;17.044;2023-05-07T04:52:16;20;20;
70691;PMS5003;58267;51.156;17.044;2023-05-07T04:54:42;20;20;
70691;PMS5003;58267;51.156;17.044;2023-05-07T04:57:08;16;16;
70691;PMS5003;58267;51.156;17.044;2023-05-07T04:59:33;18;18;
70691;PMS5003;58267;51.156;17.044;2023-05-07T05:01:58;20;20;
70691;PMS5003;58267;51.156;17.044;2023-05-07T05:04:24;16;16;
70691;PMS5003;58267;51.156;17.044;2023-05-07T05:06:49;17;17;
70691;PMS5003;58267;51.156;17.044;2023-05-07T05:09:14;19;18;
70691;PMS5003;58267;51.156;17.044;2023-05-07T05:11:40;18;16;
70691;PMS5003;58267;51.156;17.044;2023-05-07T05:14:05;20;19;
70691;PMS5003;58267;51.156;17.044;2023-05-07T05:16:30;20;20;
70691;PMS5003;58267;51.156;17.044;2023-05-07T05:18:56;18;17;
70691;PMS5003;58267;51.156;17.044;2023-05-07T05:21:21;18;17;
70691;PMS5003;58267;51.156;17.044;2023-05-07T05:23:46;18;17;
70691;PMS5003;58267;51.156;17.044;2023-05-07T05:26:11;17;16;
70691;PMS5003;58267;51.156;17.044;2023-05-07T05:28:37;17;17;
70691;PMS5003;58267;51.156;17.044;2023-05-07T05:31:02;16;16;
70691;PMS5003;58267;51.156;17.044;2023-05-07T05:33:27;16;15;
70691;PMS5003;58267;51.156;17.044;2023-05-07T05:35:53;17;16;
70691;PMS5003;58267;51.156;17.044;2023-05-07T05:38:18;17;15;
70691;PMS5003;58267;51.156;17.044;2023-05-07T05:40:44;17;16;
70691;PMS5003;58267;51.156;17.044;2023-05-07T05:43:10;16;15;
70691;PMS5003;58267;51.156;17.044;2023-05-07T05:45:35;17;17;
70691;PMS5003;58267;51.156;17.044;2023-05-07T05:48:01;15;15;
70691;PMS5003;58267;51.156;17.044;2023-05-07T05:50:26;16;16;
70691;PMS5003;58267;51.156;17.044;2023-05-07T05:52:51;14;14;
70691;PMS5003;58267;51.156;17.044;2023-05-07T05:55:16;16;15;
70691;PMS5003;58267;51.156;17.044;2023-05-07T05:57:42;15;15;
70691;PMS5003;58267;51.156;17.044;2023-05-07T06:00:08;17;16;
70691;PMS5003;58267;51.156;17.044;2023-05-07T06:02:33;19;17;
70691;PMS5003;58267;51.156;17.044;2023-05-07T06:04:58;14;14;
70691;PMS5003;58267;51.156;17.044;2023-05-07T06:07:24;17;16;
70691;PMS5003;58267;51.156;17.044;2023-05-07T06:09:49;18;18;
70691;PMS5003;58267;51.156;17.044;2023-05-07T06:12:14;13;13;
70691;PMS5003;58267;51.156;17.044;2023-05-07T06:14:39;12;12;
70691;PMS5003;58267;51.156;17.044;2023-05-07T06:17:05;13;13;
70691;PMS5003;58267;51.156;17.044;2023-05-07T06:19:31;16;16;
70691;PMS5003;58267;51.156;17.044;2023-05-07T06:21:56;16;15;
70691;PMS5003;58267;51.156;17.044;2023-05-07T06:24:22;16;15;
70691;PMS5003;58267;51.156;17.044;2023-05-07T06:26:47;17;16;
70691;PMS5003;58267;51.156;17.044;2023-05-07T06:29:13;15;15;
70691;PMS5003;58267;51.156;17.044;2023-05-07T06:31:39;16;16;
70691;PMS5003;58267;51.156;17.044;2023-05-07T06:34:04;14;14;
70691;PMS5003;58267;51.156;17.044;2023-05-07T06:36:29;15;14;
70691;PMS5003;58267;51.156;17.044;2023-05-07T06:38:55;15;15;
70691;PMS5003;58267;51.156;17.044;2023-05-07T06:41:20;17;17;
70691;PMS5003;58267;51.156;17.044;2023-05-07T06:43:45;17;15;
70691;PMS5003;58267;51.156;17.044;2023-05-07T06:46:10;15;15;
70691;PMS5003;58267;51.156;17.044;2023-05-07T06:48:36;13;13;
70691;PMS5003;58267;51.156;17.044;2023-05-07T06:51:01;12;12;
70691;PMS5003;58267;51.156;17.044;2023-05-07T06:53:27;14;14;
70691;PMS5003;58267;51.156;17.044;2023-05-07T06:55:52;12;12;
70691;PMS5003;58267;51.156;17.044;2023-05-07T06:58:18;13;13;
70691;PMS5003;58267;51.156;17.044;2023-05-07T07:00:43;12;12;
70691;PMS5003;58267;51.156;17.044;2023-05-07T07:03:09;11;11;
70691;PMS5003;58267;51.156;17.044;2023-05-07T07:05:34;12;11;
70691;PMS5003;58267;51.156;17.044;2023-05-07T07:07:59;12;11;
70691;PMS5003;58267;51.156;17.044;2023-05-07T07:10:25;10;10;
70691;PMS5003;58267;51.156;17.044;2023-05-07T07:12:50;10;9;
70691;PMS5003;58267;51.156;17.044;2023-05-07T07:15:15;11;10;
70691;PMS5003;58267;51.156;17.044;2023-05-07T07:17:40;9;9;
70691;PMS5003;58267;51.156;17.044;2023-05-07T07:20:06;12;11;
70691;PMS5003;58267;51.156;17.044;2023-05-07T07:22:31;10;9;
70691;PMS5003;58267;51.156;17.044;2023-05-07T07:24:56;9;9;
70691;PMS5003;58267;51.156;17.044;2023-05-07T07:27:22;11;11;
70691;PMS5003;58267;51.156;17.044;2023-05-07T07:29:47;10;10;
70691;PMS5003;58267;51.156;17.044;2023-05-07T07:32:12;11;11;
70691;PMS5003;58267;51.156;17.044;2023-05-07T07:34:37;12;12;
70691;PMS5003;58267;51.156;17.044;2023-05-07T07:37:02;10;10;
70691;PMS5003;58267;51.156;17.044;2023-05-07T07:39:28;14;13;
70691;PMS5003;58267;51.156;17.044;2023-05-07T07:41:53;13;13;
70691;PMS5003;58267;51.156;17.044;2023-05-07T07:44:18;17;16;
70691;PMS5003;58267;51.156;17.044;2023-05-07T07:46:43;14;13;
70691;PMS5003;58267;51.156;17.044;2023-05-07T07:49:08;14;14;
70691;PMS5003;58267;51.156;17.044;2023-05-07T07:51:34;14;14;
70691;PMS5003;58267;51.156;17.044;2023-05-07T07:54:00;15;15;
70691;PMS5003;58267;51.156;17.044;2023-05-07T07:56:26;17;15;
70691;PMS5003;58267;51.156;17.044;2023-05-07T07:58:51;15;15;
70691;PMS5003;58267;51.156;17.044;2023-05-07T08:01:17;16;15;
70691;PMS5003;58267;51.156;17.044;2023-05-07T08:03:42;15;15;
70691;PMS5003;58267;51.156;17.044;2023-05-07T08:06:08;17;17;
70691;PMS5003;58267;51.156;17.044;2023-05-07T08:08:33;14;13;
70691;PMS5003;58267;51.156;17.044;2023-05-07T08:10:58;17;17;
70691;PMS5003;58267;51.156;17.044;2023-05-07T08:13:23;15;15;
70691;PMS5003;58267;51.156;17.044;2023-05-07T08:15:49;19;19;
70691;PMS5003;58267;51.156;17.044;2023-05-07T08:18:14;16;16;
70691;PMS5003;58267;51.156;17.044;2023-05-07T08:20:40;18;16;
70691;PMS5003;58267;51.156;17.044;2023-05-07T08:23:05;16;16;
70691;PMS5003;58267;51.156;17.044;2023-05-07T08:25:30;16;16;
70691;PMS5003;58267;51.156;17.044;2023-05-07T08:27:56;17;17;
70691;PMS5003;58267;51.156;17.044;2023-05-07T08:30:21;16;16;
70691;PMS5003;58267;51.156;17.044;2023-05-07T08:32:46;19;18;
70691;PMS5003;58267;51.156;17.044;2023-05-07T08:35:12;18;16;
70691;PMS5003;58267;51.156;17.044;2023-05-07T08:37:37;17;17;
70691;PMS5003;58267;51.156;17.044;2023-05-07T08:40:04;19;19;
70691;PMS5003;58267;51.156;17.044;2023-05-07T08:42:29;18;18;
70691;PMS5003;58267;51.156;17.044;2023-05-07T08:44:55;17;16;
70691;PMS5003;58267;51.156;17.044;2023-05-07T08:47:20;20;19;
70691;PMS5003;58267;51.156;17.044;2023-05-07T08:49:45;19;18;
70691;PMS5003;58267;51.156;17.044;2023-05-07T08:52:11;21;20;
70691;PMS5003;58267;51.156;17.044;2023-05-07T08:54:36;21;20;
70691;PMS5003;58267;51.156;17.044;2023-05-07T08:57:01;20;20;
70691;PMS5003;58267;51.156;17.044;2023-05-07T08:59:27;20;18;
70691;PMS5003;58267;51.156;17.044;2023-05-07T09:01:52;22;20;
70691;PMS5003;58267;51.156;17.044;2023-05-07T09:04:17;19;18;
70691;PMS5003;58267;51.156;17.044;2023-05-07T09:06:43;18;18;
70691;PMS5003;58267;51.156;17.044;2023-05-07T09:09:09;19;18;
70691;PMS5003;58267;51.156;17.044;2023-05-07T09:11:34;19;19;
70691;PMS5003;58267;51.156;17.044;2023-05-07T09:13:59;16;16;
70691;PMS5003;58267;51.156;17.044;2023-05-07T09:16:25;16;16;
70691;PMS5003;58267;51.156;17.044;2023-05-07T09:18:50;17;17;
70691;PMS5003;58267;51.156;17.044;2023-05-07T09:21:16;16;15;
70691;PMS5003;58267;51.156;17.044;2023-05-07T09:23:41;18;18;
70691;PMS5003;58267;51.156;17.044;2023-05-07T09:26:06;16;16;
70691;PMS5003;58267;51.156;17.044;2023-05-07T09:28:32;15;14;
70691;PMS5003;58267;51.156;17.044;2023-05-07T09:30:57;20;19;
70691;PMS5003;58267;51.156;17.044;2023-05-07T09:33:26;18;18;
70691;PMS5003;58267;51.156;17.044;2023-05-07T09:35:50;21;21;
70691;PMS5003;58267;51.156;17.044;2023-05-07T09:38:13;19;19;
70691;PMS5003;58267;51.156;17.044;2023-05-07T09:40:39;22;22;
70691;PMS5003;58267;51.156;17.044;2023-05-07T09:43:09;19;19;
70691;PMS5003;58267;51.156;17.044;2023-05-07T09:45:30;23;22;
70691;PMS5003;58267;51.156;17.044;2023-05-07T09:47:57;22;22;
70691;PMS5003;58267;51.156;17.044;2023-05-07T09:50:24;21;19;
70691;PMS5003;58267;51.156;17.044;2023-05-07T09:52:47;16;16;
70691;PMS5003;58267;51.156;17.044;2023-05-07T09:55:13;20;19;
70691;PMS5003;58267;51.156;17.044;2023-05-07T09:57:38;20;19;
70691;PMS5003;58267;51.156;17.044;2023-05-07T10:00:04;19;19;
70691;PMS5003;58267;51.156;17.044;2023-05-07T10:02:29;14;14;
70691;PMS5003;58267;51.156;17.044;2023-05-07T10:04:54;16;16;
70691;PMS5003;58267;51.156;17.044;2023-05-07T10:07:19;17;17;
70691;PMS5003;58267;51.156;17.044;2023-05-07T10:09:44;14;13;
70691;PMS5003;58267;51.156;17.044;2023-05-07T10:12:09;14;13;
70691;PMS5003;58267;51.156;17.044;2023-05-07T10:14:35;15;15;
70691;PMS5003;58267;51.156;17.044;2023-05-07T10:17:00;12;12;
70691;PMS5003;58267;51.156;17.044;2023-05-07T10:19:25;14;13;
70691;PMS5003;58267;51.156;17.044;2023-05-07T10:21:52;13;13;
70691;PMS5003;58267;51.156;17.044;2023-05-07T10:24:19;16;15;
70691;PMS5003;58267;51.156;17.044;2023-05-07T10:26:42;15;13;
70691;PMS5003;58267;51.156;17.044;2023-05-07T10:29:07;15;15;
70691;PMS5003;58267;51.156;17.044;2023-05-07T10:31:37;14;14;
70691;PMS5003;58267;51.156;17.044;2023-05-07T10:33:57;13;12;
70691;PMS5003;58267;51.156;17.044;2023-05-07T10:36:22;12;12;
70691;PMS5003;58267;51.156;17.044;2023-05-07T10:38:47;11;11;
70691;PMS5003;58267;51.156;17.044;2023-05-07T10:41:13;15;15;
70691;PMS5003;58267;51.156;17.044;2023-05-07T10:43:39;11;11;
70691;PMS5003;58267;51.156;17.044;2023-05-07T10:46:11;12;12;
70691;PMS5003;58267;51.156;17.044;2023-05-07T10:48:28;14;14;
70691;PMS5003;58267;51.156;17.044;2023-05-07T10:51:17;14;13;
70691;PMS5003;58267;51.156;17.044;2023-05-07T10:53:20;15;15;
70691;PMS5003;58267;51.156;17.044;2023-05-07T10:55:44;14;14;
70691;PMS5003;58267;51.156;17.044;2023-05-07T11:05:25;15;14;
70691;PMS5003;58267;51.156;17.044;2023-05-07T11:07:53;14;14;
70691;PMS5003;58267;51.156;17.044;2023-05-07T11:10:15;17;17;
70691;PMS5003;58267;51.156;17.044;2023-05-07T11:15:06;15;15;
70691;PMS5003;58267;51.156;17.044;2023-05-07T11:17:31;11;11;
70691;PMS5003;58267;51.156;17.044;2023-05-07T11:19:56;13;13;
70691;PMS5003;58267;51.156;17.044;2023-05-07T11:24:47;15;14;
70691;PMS5003;58267;51.156;17.044;2023-05-07T11:27:12;14;14;
70691;PMS5003;58267;51.156;17.044;2023-05-07T11:29:37;14;13;
70691;PMS5003;58267;51.156;17.044;2023-05-07T11:32:03;16;15;
70691;PMS5003;58267;51.156;17.044;2023-05-07T11:34:28;13;13;
70691;PMS5003;58267;51.156;17.044;2023-05-07T11:36:54;12;12;
70691;PMS5003;58267;51.156;17.044;2023-05-07T11:41:45;15;14;
70691;PMS5003;58267;51.156;17.044;2023-05-07T11:44:11;14;14;
70691;PMS5003;58267;51.156;17.044;2023-05-07T11:46:37;17;17;
70691;PMS5003;58267;51.156;17.044;2023-05-07T11:49:02;15;15;
70691;PMS5003;58267;51.156;17.044;2023-05-07T11:51:28;14;14;
70691;PMS5003;58267;51.156;17.044;2023-05-07T11:53:53;13;12;
70691;PMS5003;58267;51.156;17.044;2023-05-07T11:56:18;13;13;
70691;PMS5003;58267;51.156;17.044;2023-05-07T11:58:44;15;13;
70691;PMS5003;58267;51.156;17.044;2023-05-07T12:01:09;13;13;
70691;PMS5003;58267;51.156;17.044;2023-05-07T12:03:34;18;16;
70691;PMS5003;58267;51.156;17.044;2023-05-07T12:05:59;16;16;
70691;PMS5003;58267;51.156;17.044;2023-05-07T12:08:25;12;12;
70691;PMS5003;58267;51.156;17.044;2023-05-07T12:10:50;15;15;
70691;PMS5003;58267;51.156;17.044;2023-05-07T12:13:15;16;15;
70691;PMS5003;58267;51.156;17.044;2023-05-07T12:15:41;15;15;
70691;PMS5003;58267;51.156;17.044;2023-05-07T12:18:06;14;14;
70691;PMS5003;58267;51.156;17.044;2023-05-07T12:20:31;14;14;
70691;PMS5003;58267;51.156;17.044;2023-05-07T12:22:56;15;14;
70691;PMS5003;58267;51.156;17.044;2023-05-07T12:25:21;16;16;
70691;PMS5003;58267;51.156;17.044;2023-05-07T12:27:50;13;12;
70691;PMS5003;58267;51.156;17.044;2023-05-07T12:30:12;17;17;
70691;PMS5003;58267;51.156;17.044;2023-05-07T12:32:37;14;14;
70691;PMS5003;58267;51.156;17.044;2023-05-07T12:35:02;16;15;
70691;PMS5003;58267;51.156;17.044;2023-05-07T12:37:28;13;13;
70691;PMS5003;58267;51.156;17.044;2023-05-07T12:42:19;17;16;
70691;PMS5003;58267;51.156;17.044;2023-05-07T12:44:45;16;16;
70691;PMS5003;58267;51.156;17.044;2023-05-07T12:47:09;16;16;
70691;PMS5003;58267;51.156;17.044;2023-05-07T12:49:35;18;17;
70691;PMS5003;58267;51.156;17.044;2023-05-07T12:52:01;18;18;
70691;PMS5003;58267;51.156;17.044;2023-05-07T12:54:27;16;16;
70691;PMS5003;58267;51.156;17.044;2023-05-07T12:56:51;17;16;
70691;PMS5003;58267;51.156;17.044;2023-05-07T12:59:17;18;18;
70691;PMS5003;58267;51.156;17.044;2023-05-07T13:01:43;15;15;
70691;PMS5003;58267;51.156;17.044;2023-05-07T13:04:07;18;17;
70691;PMS5003;58267;51.156;17.044;2023-05-07T13:06:33;17;17;
70691;PMS5003;58267;51.156;17.044;2023-05-07T13:08:58;17;17;
70691;PMS5003;58267;51.156;17.044;2023-05-07T13:11:24;16;16;
70691;PMS5003;58267;51.156;17.044;2023-05-07T13:13:49;19;16;
70691;PMS5003;58267;51.156;17.044;2023-05-07T13:16:15;17;16;
70691;PMS5003;58267;51.156;17.044;2023-05-07T13:18:40;16;16;
70691;PMS5003;58267;51.156;17.044;2023-05-07T13:21:06;17;17;
70691;PMS5003;58267;51.156;17.044;2023-05-07T13:23:31;20;19;
70691;PMS5003;58267;51.156;17.044;2023-05-07T13:25:57;17;17;
70691;PMS5003;58267;51.156;17.044;2023-05-07T13:28:22;20;20;
70691;PMS5003;58267;51.156;17.044;2023-05-07T13:30:48;18;18;
70691;PMS5003;58267;51.156;17.044;2023-05-07T13:33:13;18;17;
70691;PMS5003;58267;51.156;17.044;2023-05-07T13:35:38;19;18;
70691;PMS5003;58267;51.156;17.044;2023-05-07T13:38:04;16;15;
70691;PMS5003;58267;51.156;17.044;2023-05-07T13:40:29;16;16;
70691;PMS5003;58267;51.156;17.044;2023-05-07T13:42:56;16;16;
70691;PMS5003;58267;51.156;17.044;2023-05-07T13:45:20;15;15;
70691;PMS5003;58267;51.156;17.044;2023-05-07T13:47:46;20;18;
70691;PMS5003;58267;51.156;17.044;2023-05-07T13:50:11;19;19;
70691;PMS5003;58267;51.156;17.044;2023-05-07T13:52:37;17;16;
70691;PMS5003;58267;51.156;17.044;2023-05-07T13:55:02;17;17;
70691;PMS5003;58267;51.156;17.044;2023-05-07T13:57:27;17;17;
70691;PMS5003;58267;51.156;17.044;2023-05-07T13:59:52;14;14;
70691;PMS5003;58267;51.156;17.044;2023-05-07T14:02:18;15;15;
70691;PMS5003;58267;51.156;17.044;2023-05-07T14:04:43;15;15;
70691;PMS5003;58267;51.156;17.044;2023-05-07T14:07:09;14;13;
70691;PMS5003;58267;51.156;17.044;2023-05-07T14:09:34;16;16;
70691;PMS5003;58267;51.156;17.044;2023-05-07T14:11:59;16;15;
70691;PMS5003;58267;51.156;17.044;2023-05-07T14:14:25;13;13;
70691;PMS5003;58267;51.156;17.044;2023-05-07T14:16:50;13;13;
70691;PMS5003;58267;51.156;17.044;2023-05-07T14:19:15;13;13;
70691;PMS5003;58267;51.156;17.044;2023-05-07T14:21:41;18;18;
70691;PMS5003;58267;51.156;17.044;2023-05-07T14:24:07;14;14;
70691;PMS5003;58267;51.156;17.044;2023-05-07T14:26:32;17;16;
70691;PMS5003;58267;51.156;17.044;2023-05-07T14:28:57;14;14;
70691;PMS5003;58267;51.156;17.044;2023-05-07T14:31:22;12;12;
70691;PMS5003;58267;51.156;17.044;2023-05-07T14:33:48;17;17;
70691;PMS5003;58267;51.156;17.044;2023-05-07T14:36:13;16;15;
70691;PMS5003;58267;51.156;17.044;2023-05-07T14:38:39;15;13;
70691;PMS5003;58267;51.156;17.044;2023-05-07T14:41:04;18;17;
70691;PMS5003;58267;51.156;17.044;2023-05-07T14:43:29;13;13;
70691;PMS5003;58267;51.156;17.044;2023-05-07T14:45:54;15;14;
70691;PMS5003;58267;51.156;17.044;2023-05-07T14:48:19;15;14;
70691;PMS5003;58267;51.156;17.044;2023-05-07T14:50:46;14;13;
70691;PMS5003;58267;51.156;17.044;2023-05-07T14:53:10;15;12;
70691;PMS5003;58267;51.156;17.044;2023-05-07T14:55:36;14;14;
70691;PMS5003;58267;51.156;17.044;2023-05-07T14:58:01;16;16;
70691;PMS5003;58267;51.156;17.044;2023-05-07T15:00:26;13;13;
70691;PMS5003;58267;51.156;17.044;2023-05-07T15:02:51;15;14;
70691;PMS5003;58267;51.156;17.044;2023-05-07T15:05:16;12;12;
70691;PMS5003;58267;51.156;17.044;2023-05-07T15:07:42;15;15;
70691;PMS5003;58267;51.156;17.044;2023-05-07T15:10:07;16;15;
70691;PMS5003;58267;51.156;17.044;2023-05-07T15:12:32;15;14;
70691;PMS5003;58267;51.156;17.044;2023-05-07T15:14:57;15;15;
70691;PMS5003;58267;51.156;17.044;2023-05-07T15:17:23;18;18;
70691;PMS5003;58267;51.156;17.044;2023-05-07T15:19:49;16;16;
70691;PMS5003;58267;51.156;17.044;2023-05-07T15:22:14;14;14;
70691;PMS5003;58267;51.156;17.044;2023-05-07T15:24:39;13;13;
70691;PMS5003;58267;51.156;17.044;2023-05-07T15:27:05;16;16;
70691;PMS5003;58267;51.156;17.044;2023-05-07T15:29:30;15;15;
70691;PMS5003;58267;51.156;17.044;2023-05-07T15:31:55;17;17;
70691;PMS5003;58267;51.156;17.044;2023-05-07T15:34:21;15;15;
70691;PMS5003;58267;51.156;17.044;2023-05-07T15:36:46;19;18;
70691;PMS5003;58267;51.156;17.044;2023-05-07T15:39:12;19;19;
70691;PMS5003;58267;51.156;17.044;2023-05-07T15:41:37;13;13;
70691;PMS5003;58267;51.156;17.044;2023-05-07T15:44:03;18;17;
70691;PMS5003;58267;51.156;17.044;2023-05-07T15:46:28;14;14;
70691;PMS5003;58267;51.156;17.044;2023-05-07T15:48:53;14;14;
70691;PMS5003;58267;51.156;17.044;2023-05-07T15:51:18;15;15;
70691;PMS5003;58267;51.156;17.044;2023-05-07T15:53:43;14;14;
70691;PMS5003;58267;51.156;17.044;2023-05-07T15:56:08;17;17;
70691;PMS5003;58267;51.156;17.044;2023-05-07T15:58:34;14;14;
70691;PMS5003;58267;51.156;17.044;2023-05-07T16:00:59;18;18;
70691;PMS5003;58267;51.156;17.044;2023-05-07T16:03:25;18;18;
70691;PMS5003;58267;51.156;17.044;2023-05-07T16:05:50;16;16;